sensor_id;sensor_type;location;lat;lon;timestamp;P1;durP1;ratioP1;P2;durP2;ratioP2
78372;SDS011;67656;52.074;4.758;2023-09-19T00:01:42;4.30;;;0.90;;
78372;SDS011;67656;52.074;4.758;2023-09-19T00:07:01;3.28;;;0.90;;
78372;SDS011;67656;52.074;4.758;2023-09-19T00:12:15;3.00;;;0.80;;
78372;SDS011;67656;52.074;4.758;2023-09-19T00:17:46;2.20;;;0.82;;
78372;SDS011;67656;52.074;4.758;2023-09-19T00:23:10;6.07;;;0.98;;
78372;SDS011;67656;52.074;4.758;2023-09-19T00:33:55;4.45;;;1.00;;
78372;SDS011;67656;52.074;4.758;2023-09-19T00:39:06;4.35;;;1.00;;
78372;SDS011;67656;52.074;4.758;2023-09-19T00:44:20;6.50;;;1.00;;
78372;SDS011;67656;52.074;4.758;2023-09-19T00:49:21;4.25;;;0.90;;
78372;SDS011;67656;52.074;4.758;2023-09-19T00:54:39;3.83;;;1.02;;
78372;SDS011;67656;52.074;4.758;2023-09-19T01:00:14;7.55;;;0.80;;
78372;SDS011;67656;52.074;4.758;2023-09-19T01:05:34;7.65;;;1.38;;
78372;SDS011;67656;52.074;4.758;2023-09-19T01:32:38;8.52;;;1.35;;
78372;SDS011;67656;52.074;4.758;2023-09-19T01:37:44;5.97;;;1.30;;
78372;SDS011;67656;52.074;4.758;2023-09-19T01:59:25;5.20;;;1.00;;
78372;SDS011;67656;52.074;4.758;2023-09-19T02:04:35;6.75;;;1.58;;
78372;SDS011;67656;52.074;4.758;2023-09-19T02:09:43;7.70;;;1.60;;
78372;SDS011;67656;52.074;4.758;2023-09-19T02:14:44;8.50;;;1.42;;
78372;SDS011;67656;52.074;4.758;2023-09-19T02:19:47;9.95;;;1.20;;
78372;SDS011;67656;52.074;4.758;2023-09-19T02:24:55;12.07;;;1.52;;
78372;SDS011;67656;52.074;4.758;2023-09-19T02:29:56;5.15;;;0.90;;
78372;SDS011;67656;52.074;4.758;2023-09-19T02:35:00;8.68;;;1.23;;
78372;SDS011;67656;52.074;4.758;2023-09-19T02:40:02;7.10;;;1.02;;
78372;SDS011;67656;52.074;4.758;2023-09-19T02:45:07;6.68;;;1.13;;
78372;SDS011;67656;52.074;4.758;2023-09-19T02:50:08;7.95;;;1.25;;
78372;SDS011;67656;52.074;4.758;2023-09-19T02:55:15;7.88;;;1.25;;
78372;SDS011;67656;52.074;4.758;2023-09-19T03:00:23;3.75;;;0.90;;
78372;SDS011;67656;52.074;4.758;2023-09-19T03:05:29;7.05;;;1.23;;
78372;SDS011;67656;52.074;4.758;2023-09-19T03:10:30;8.75;;;1.17;;
78372;SDS011;67656;52.074;4.758;2023-09-19T03:15:32;7.72;;;1.10;;
78372;SDS011;67656;52.074;4.758;2023-09-19T03:20:32;6.05;;;0.93;;
78372;SDS011;67656;52.074;4.758;2023-09-19T03:25:35;7.68;;;1.00;;
78372;SDS011;67656;52.074;4.758;2023-09-19T03:30:38;9.05;;;1.25;;
78372;SDS011;67656;52.074;4.758;2023-09-19T03:35:43;4.93;;;0.90;;
78372;SDS011;67656;52.074;4.758;2023-09-19T03:40:55;9.30;;;1.23;;
78372;SDS011;67656;52.074;4.758;2023-09-19T03:46:00;4.75;;;0.85;;
78372;SDS011;67656;52.074;4.758;2023-09-19T03:51:06;8.18;;;1.52;;
78372;SDS011;67656;52.074;4.758;2023-09-19T03:56:07;8.05;;;1.30;;
78372;SDS011;67656;52.074;4.758;2023-09-19T04:01:09;8.40;;;1.55;;
78372;SDS011;67656;52.074;4.758;2023-09-19T04:06:15;8.30;;;1.15;;
78372;SDS011;67656;52.074;4.758;2023-09-19T04:11:17;4.28;;;0.82;;
78372;SDS011;67656;52.074;4.758;2023-09-19T04:16:20;10.25;;;1.17;;
78372;SDS011;67656;52.074;4.758;2023-09-19T04:21:29;8.00;;;1.60;;
78372;SDS011;67656;52.074;4.758;2023-09-19T04:26:40;7.10;;;1.02;;
78372;SDS011;67656;52.074;4.758;2023-09-19T04:31:44;4.43;;;1.13;;
78372;SDS011;67656;52.074;4.758;2023-09-19T04:36:45;5.63;;;1.10;;
78372;SDS011;67656;52.074;4.758;2023-09-19T04:41:48;7.82;;;1.27;;
78372;SDS011;67656;52.074;4.758;2023-09-19T04:46:56;5.97;;;1.20;;
78372;SDS011;67656;52.074;4.758;2023-09-19T04:52:06;7.75;;;1.25;;
78372;SDS011;67656;52.074;4.758;2023-09-19T04:57:06;5.93;;;1.10;;
78372;SDS011;67656;52.074;4.758;2023-09-19T05:02:07;9.23;;;1.15;;
78372;SDS011;67656;52.074;4.758;2023-09-19T05:07:09;4.63;;;1.25;;
78372;SDS011;67656;52.074;4.758;2023-09-19T05:12:20;9.05;;;1.30;;
78372;SDS011;67656;52.074;4.758;2023-09-19T05:23:31;8.60;;;1.15;;
78372;SDS011;67656;52.074;4.758;2023-09-19T05:40:55;6.88;;;1.05;;
78372;SDS011;67656;52.074;4.758;2023-09-19T05:46:01;6.53;;;1.02;;
78372;SDS011;67656;52.074;4.758;2023-09-19T05:51:14;5.75;;;1.60;;
78372;SDS011;67656;52.074;4.758;2023-09-19T05:56:26;6.05;;;1.05;;
78372;SDS011;67656;52.074;4.758;2023-09-19T06:01:30;6.00;;;1.23;;
78372;SDS011;67656;52.074;4.758;2023-09-19T06:06:32;5.10;;;1.27;;
78372;SDS011;67656;52.074;4.758;2023-09-19T06:11:41;8.10;;;1.23;;
78372;SDS011;67656;52.074;4.758;2023-09-19T06:16:47;7.35;;;1.23;;
78372;SDS011;67656;52.074;4.758;2023-09-19T06:21:56;8.77;;;1.20;;
78372;SDS011;67656;52.074;4.758;2023-09-19T06:32:41;7.50;;;1.40;;
78372;SDS011;67656;52.074;4.758;2023-09-19T06:37:45;6.70;;;1.02;;
78372;SDS011;67656;52.074;4.758;2023-09-19T06:42:57;8.38;;;1.13;;
78372;SDS011;67656;52.074;4.758;2023-09-19T07:00:03;9.63;;;1.42;;
78372;SDS011;67656;52.074;4.758;2023-09-19T07:05:32;8.02;;;1.35;;
78372;SDS011;67656;52.074;4.758;2023-09-19T07:10:39;5.18;;;1.42;;
78372;SDS011;67656;52.074;4.758;2023-09-19T07:33:10;9.30;;;2.15;;
78372;SDS011;67656;52.074;4.758;2023-09-19T07:38:30;9.90;;;1.85;;
78372;SDS011;67656;52.074;4.758;2023-09-19T07:43:40;9.27;;;1.70;;
78372;SDS011;67656;52.074;4.758;2023-09-19T08:01:41;8.13;;;1.30;;
78372;SDS011;67656;52.074;4.758;2023-09-19T08:06:48;7.85;;;1.30;;
78372;SDS011;67656;52.074;4.758;2023-09-19T08:18:10;9.35;;;1.90;;
78372;SDS011;67656;52.074;4.758;2023-09-19T08:35:50;10.18;;;1.70;;
78372;SDS011;67656;52.074;4.758;2023-09-19T08:41:06;6.45;;;1.65;;
78372;SDS011;67656;52.074;4.758;2023-09-19T08:58:00;9.75;;;1.42;;
78372;SDS011;67656;52.074;4.758;2023-09-19T09:03:06;8.38;;;1.38;;
78372;SDS011;67656;52.074;4.758;2023-09-19T09:08:27;7.32;;;1.42;;
78372;SDS011;67656;52.074;4.758;2023-09-19T09:13:36;11.23;;;1.55;;
78372;SDS011;67656;52.074;4.758;2023-09-19T09:18:37;8.63;;;1.92;;
78372;SDS011;67656;52.074;4.758;2023-09-19T09:23:48;10.43;;;1.73;;
78372;SDS011;67656;52.074;4.758;2023-09-19T09:28:49;8.70;;;1.70;;
78372;SDS011;67656;52.074;4.758;2023-09-19T09:34:02;9.93;;;2.07;;
78372;SDS011;67656;52.074;4.758;2023-09-19T09:39:03;17.65;;;1.92;;
78372;SDS011;67656;52.074;4.758;2023-09-19T09:44:15;5.72;;;1.42;;
78372;SDS011;67656;52.074;4.758;2023-09-19T09:49:24;5.18;;;1.25;;
78372;SDS011;67656;52.074;4.758;2023-09-19T09:54:28;7.38;;;1.30;;
78372;SDS011;67656;52.074;4.758;2023-09-19T10:05:24;9.43;;;1.60;;
78372;SDS011;67656;52.074;4.758;2023-09-19T10:10:35;6.93;;;1.40;;
78372;SDS011;67656;52.074;4.758;2023-09-19T10:15:36;9.90;;;1.88;;
78372;SDS011;67656;52.074;4.758;2023-09-19T10:20:38;5.28;;;1.10;;
78372;SDS011;67656;52.074;4.758;2023-09-19T10:25:40;7.30;;;1.75;;
78372;SDS011;67656;52.074;4.758;2023-09-19T10:30:49;6.88;;;1.20;;
78372;SDS011;67656;52.074;4.758;2023-09-19T10:35:58;7.85;;;1.88;;
78372;SDS011;67656;52.074;4.758;2023-09-19T10:41:08;6.40;;;1.30;;
78372;SDS011;67656;52.074;4.758;2023-09-19T10:46:20;6.75;;;1.70;;
78372;SDS011;67656;52.074;4.758;2023-09-19T10:51:22;6.88;;;1.23;;
78372;SDS011;67656;52.074;4.758;2023-09-19T10:56:35;5.85;;;1.35;;
78372;SDS011;67656;52.074;4.758;2023-09-19T11:01:44;6.35;;;1.15;;
78372;SDS011;67656;52.074;4.758;2023-09-19T11:29:51;5.40;;;0.93;;
78372;SDS011;67656;52.074;4.758;2023-09-19T11:41:37;3.85;;;0.90;;
78372;SDS011;67656;52.074;4.758;2023-09-19T11:57:56;3.13;;;0.80;;
78372;SDS011;67656;52.074;4.758;2023-09-19T12:03:12;4.20;;;1.08;;
78372;SDS011;67656;52.074;4.758;2023-09-19T12:13:25;7.57;;;0.85;;
78372;SDS011;67656;52.074;4.758;2023-09-19T12:18:41;5.28;;;1.38;;
78372;SDS011;67656;52.074;4.758;2023-09-19T12:24:11;3.63;;;0.95;;
78372;SDS011;67656;52.074;4.758;2023-09-19T12:29:19;3.03;;;1.13;;
78372;SDS011;67656;52.074;4.758;2023-09-19T12:34:32;7.57;;;1.13;;
78372;SDS011;67656;52.074;4.758;2023-09-19T12:39:39;6.50;;;0.80;;
78372;SDS011;67656;52.074;4.758;2023-09-19T12:56:15;3.05;;;1.00;;
78372;SDS011;67656;52.074;4.758;2023-09-19T13:01:33;3.45;;;0.70;;
78372;SDS011;67656;52.074;4.758;2023-09-19T13:06:40;4.28;;;0.93;;
78372;SDS011;67656;52.074;4.758;2023-09-19T13:22:45;4.25;;;1.20;;
78372;SDS011;67656;52.074;4.758;2023-09-19T13:27:50;3.03;;;0.98;;
78372;SDS011;67656;52.074;4.758;2023-09-19T13:32:52;5.82;;;1.10;;
78372;SDS011;67656;52.074;4.758;2023-09-19T13:38:05;5.83;;;1.53;;
78372;SDS011;67656;52.074;4.758;2023-09-19T13:43:17;4.00;;;1.13;;
78372;SDS011;67656;52.074;4.758;2023-09-19T13:48:23;8.35;;;1.20;;
78372;SDS011;67656;52.074;4.758;2023-09-19T13:53:23;3.78;;;1.00;;
78372;SDS011;67656;52.074;4.758;2023-09-19T13:58:29;6.05;;;1.20;;
78372;SDS011;67656;52.074;4.758;2023-09-19T14:03:33;4.78;;;1.10;;
78372;SDS011;67656;52.074;4.758;2023-09-19T14:13:42;3.03;;;1.20;;
78372;SDS011;67656;52.074;4.758;2023-09-19T14:18:44;4.35;;;1.63;;
78372;SDS011;67656;52.074;4.758;2023-09-19T14:23:50;5.63;;;1.63;;
78372;SDS011;67656;52.074;4.758;2023-09-19T14:29:14;4.47;;;1.40;;
78372;SDS011;67656;52.074;4.758;2023-09-19T14:34:18;6.68;;;1.58;;
78372;SDS011;67656;52.074;4.758;2023-09-19T14:39:37;7.45;;;1.80;;
78372;SDS011;67656;52.074;4.758;2023-09-19T14:44:37;8.15;;;1.70;;
78372;SDS011;67656;52.074;4.758;2023-09-19T14:49:47;5.28;;;1.48;;
78372;SDS011;67656;52.074;4.758;2023-09-19T14:54:58;5.32;;;1.33;;
78372;SDS011;67656;52.074;4.758;2023-09-19T15:05:29;6.15;;;1.35;;
78372;SDS011;67656;52.074;4.758;2023-09-19T15:10:29;6.88;;;1.30;;
78372;SDS011;67656;52.074;4.758;2023-09-19T15:15:32;6.10;;;1.40;;
78372;SDS011;67656;52.074;4.758;2023-09-19T15:20:36;6.40;;;1.60;;
78372;SDS011;67656;52.074;4.758;2023-09-19T15:31:00;6.15;;;1.70;;
78372;SDS011;67656;52.074;4.758;2023-09-19T15:36:11;4.80;;;1.40;;
78372;SDS011;67656;52.074;4.758;2023-09-19T15:41:23;5.88;;;1.65;;
78372;SDS011;67656;52.074;4.758;2023-09-19T15:46:24;6.80;;;1.50;;
78372;SDS011;67656;52.074;4.758;2023-09-19T15:51:25;5.63;;;1.30;;
78372;SDS011;67656;52.074;4.758;2023-09-19T15:56:29;7.55;;;1.55;;
78372;SDS011;67656;52.074;4.758;2023-09-19T16:01:29;5.78;;;1.73;;
78372;SDS011;67656;52.074;4.758;2023-09-19T16:12:34;6.25;;;1.98;;
78372;SDS011;67656;52.074;4.758;2023-09-19T16:17:34;6.75;;;2.00;;
78372;SDS011;67656;52.074;4.758;2023-09-19T16:22:39;5.28;;;1.60;;
78372;SDS011;67656;52.074;4.758;2023-09-19T16:27:54;9.20;;;2.33;;
78372;SDS011;67656;52.074;4.758;2023-09-19T17:08:24;11.32;;;2.22;;
78372;SDS011;67656;52.074;4.758;2023-09-19T17:13:49;7.47;;;2.03;;
78372;SDS011;67656;52.074;4.758;2023-09-19T17:24:22;8.32;;;2.28;;
78372;SDS011;67656;52.074;4.758;2023-09-19T17:30:23;9.73;;;2.60;;
78372;SDS011;67656;52.074;4.758;2023-09-19T17:36:28;8.98;;;2.42;;
78372;SDS011;67656;52.074;4.758;2023-09-19T17:41:29;12.05;;;2.40;;
78372;SDS011;67656;52.074;4.758;2023-09-19T17:46:42;9.68;;;2.47;;
78372;SDS011;67656;52.074;4.758;2023-09-19T17:57:21;8.77;;;2.00;;
78372;SDS011;67656;52.074;4.758;2023-09-19T18:02:26;6.80;;;1.90;;
78372;SDS011;67656;52.074;4.758;2023-09-19T18:07:27;8.45;;;2.67;;
78372;SDS011;67656;52.074;4.758;2023-09-19T18:17:43;6.80;;;2.20;;
78372;SDS011;67656;52.074;4.758;2023-09-19T18:23:14;6.75;;;2.10;;
78372;SDS011;67656;52.074;4.758;2023-09-19T18:34:19;9.27;;;2.80;;
78372;SDS011;67656;52.074;4.758;2023-09-19T18:45:17;9.93;;;2.40;;
78372;SDS011;67656;52.074;4.758;2023-09-19T18:50:21;8.60;;;2.40;;
78372;SDS011;67656;52.074;4.758;2023-09-19T19:01:14;5.88;;;2.55;;
78372;SDS011;67656;52.074;4.758;2023-09-19T19:06:27;7.55;;;2.28;;
78372;SDS011;67656;52.074;4.758;2023-09-19T19:11:38;9.13;;;2.50;;
78372;SDS011;67656;52.074;4.758;2023-09-19T19:22:28;9.38;;;2.60;;
78372;SDS011;67656;52.074;4.758;2023-09-19T19:27:34;8.57;;;2.75;;
78372;SDS011;67656;52.074;4.758;2023-09-19T19:32:38;8.93;;;2.80;;
78372;SDS011;67656;52.074;4.758;2023-09-19T19:37:44;9.18;;;2.70;;
78372;SDS011;67656;52.074;4.758;2023-09-19T19:42:55;6.90;;;2.63;;
78372;SDS011;67656;52.074;4.758;2023-09-19T19:48:24;6.35;;;2.30;;
78372;SDS011;67656;52.074;4.758;2023-09-19T19:54:03;7.85;;;2.30;;
78372;SDS011;67656;52.074;4.758;2023-09-19T20:10:32;9.48;;;2.30;;
78372;SDS011;67656;52.074;4.758;2023-09-19T20:27:52;6.18;;;2.63;;
78372;SDS011;67656;52.074;4.758;2023-09-19T20:38:42;8.68;;;2.55;;
78372;SDS011;67656;52.074;4.758;2023-09-19T20:44:02;6.85;;;2.35;;
78372;SDS011;67656;52.074;4.758;2023-09-19T20:49:06;8.10;;;2.55;;
78372;SDS011;67656;52.074;4.758;2023-09-19T20:54:09;9.68;;;2.50;;
78372;SDS011;67656;52.074;4.758;2023-09-19T20:59:23;7.70;;;2.58;;
78372;SDS011;67656;52.074;4.758;2023-09-19T21:04:26;8.10;;;2.42;;
78372;SDS011;67656;52.074;4.758;2023-09-19T21:21:56;7.57;;;2.17;;
78372;SDS011;67656;52.074;4.758;2023-09-19T21:26:57;8.68;;;2.47;;
78372;SDS011;67656;52.074;4.758;2023-09-19T21:31:58;8.30;;;2.75;;
78372;SDS011;67656;52.074;4.758;2023-09-19T21:36:58;7.07;;;2.40;;
78372;SDS011;67656;52.074;4.758;2023-09-19T21:41:59;10.27;;;2.75;;
78372;SDS011;67656;52.074;4.758;2023-09-19T21:47:02;9.03;;;2.47;;
78372;SDS011;67656;52.074;4.758;2023-09-19T21:52:02;7.10;;;2.13;;
78372;SDS011;67656;52.074;4.758;2023-09-19T21:57:03;5.25;;;2.10;;
78372;SDS011;67656;52.074;4.758;2023-09-19T22:02:04;7.65;;;2.13;;
78372;SDS011;67656;52.074;4.758;2023-09-19T22:07:10;10.38;;;2.28;;
78372;SDS011;67656;52.074;4.758;2023-09-19T22:12:10;6.13;;;2.10;;
78372;SDS011;67656;52.074;4.758;2023-09-19T22:17:13;5.22;;;1.80;;
78372;SDS011;67656;52.074;4.758;2023-09-19T22:22:16;6.57;;;2.38;;
78372;SDS011;67656;52.074;4.758;2023-09-19T22:27:17;8.13;;;2.05;;
78372;SDS011;67656;52.074;4.758;2023-09-19T22:32:17;10.43;;;2.30;;
78372;SDS011;67656;52.074;4.758;2023-09-19T22:37:18;10.65;;;2.10;;
78372;SDS011;67656;52.074;4.758;2023-09-19T22:42:20;8.18;;;2.17;;
78372;SDS011;67656;52.074;4.758;2023-09-19T22:47:20;12.48;;;2.40;;
78372;SDS011;67656;52.074;4.758;2023-09-19T22:52:25;10.55;;;2.05;;
78372;SDS011;67656;52.074;4.758;2023-09-19T22:57:26;5.47;;;2.70;;
78372;SDS011;67656;52.074;4.758;2023-09-19T23:02:28;10.05;;;2.25;;
78372;SDS011;67656;52.074;4.758;2023-09-19T23:07:30;5.45;;;1.80;;
78372;SDS011;67656;52.074;4.758;2023-09-19T23:12:31;10.27;;;2.30;;
78372;SDS011;67656;52.074;4.758;2023-09-19T23:22:35;7.97;;;1.92;;
78372;SDS011;67656;52.074;4.758;2023-09-19T23:27:36;5.05;;;2.08;;
78372;SDS011;67656;52.074;4.758;2023-09-19T23:32:36;4.60;;;1.92;;
78372;SDS011;67656;52.074;4.758;2023-09-19T23:37:37;7.68;;;1.98;;
78372;SDS011;67656;52.074;4.758;2023-09-19T23:42:39;8.55;;;2.10;;
78372;SDS011;67656;52.074;4.758;2023-09-19T23:47:39;8.23;;;2.08;;
78372;SDS011;67656;52.074;4.758;2023-09-19T23:52:46;10.90;;;2.67;;
78372;SDS011;67656;52.074;4.758;2023-09-19T23:58:01;5.57;;;1.88;;
